createdAt,value
2022-08-05T00:18:23.202Z,47.35
2022-08-05T00:47:05.992Z,47.58
2022-08-05T01:15:36.794Z,49.84
2022-08-05T01:43:50.317Z,50.33
2022-08-05T02:12:55.262Z,52.23
2022-08-05T02:42:01.984Z,52.57
2022-08-05T03:10:27.992Z,52.58
2022-08-05T03:39:28.423Z,54.61
2022-08-05T04:07:59.599Z,56.72
2022-08-05T04:36:49.999Z,57.39
2022-08-05T05:05:17.074Z,56.75
2022-08-05T05:33:59.002Z,55.33
2022-08-05T06:02:08.084Z,53.58
2022-08-05T06:30:35.886Z,53.14
2022-08-05T06:59:19.128Z,50.31
2022-08-05T07:28:18.169Z,39.29
2022-08-05T07:57:15.084Z,39.64
2022-08-05T08:25:37.345Z,37.91
2022-08-05T08:53:48.531Z,35.7
2022-08-05T09:22:37.798Z,33.03
2022-08-05T09:51:16.121Z,33.66
2022-08-05T10:20:03.388Z,34.43
2022-08-05T10:48:30.432Z,34.44
2022-08-05T11:16:48.048Z,33.23
2022-08-05T11:45:00.161Z,33.12
2022-08-05T12:13:50.121Z,33.03
2022-08-05T12:42:02.136Z,32.37
2022-08-05T13:10:29.337Z,33.24
2022-08-05T13:39:24.250Z,35.45
2022-08-05T14:07:57.099Z,38.97
2022-08-05T14:35:55.359Z,42.75
2022-08-05T15:04:15.802Z,42.5
2022-08-05T15:32:49.060Z,44.21
2022-08-05T16:01:40.140Z,43.17
2022-08-05T16:29:51.979Z,44.73
2022-08-05T16:58:20.517Z,46.36
2022-08-05T17:26:51.712Z,47.09
2022-08-05T17:55:18.971Z,44.77
2022-08-05T18:23:54.859Z,44.89
2022-08-05T18:52:12.141Z,47.26
2022-08-05T19:20:47.178Z,52.51
2022-08-05T19:49:05.073Z,52.66
2022-08-05T20:17:37.233Z,48.39
2022-08-05T20:46:01.443Z,49.87
2022-08-05T21:14:19.366Z,52.91
2022-08-05T21:42:47.931Z,55.79
2022-08-05T22:11:17.876Z,55.21
2022-08-05T22:39:35.274Z,54.73
2022-08-05T23:36:55.345Z,53.28
